Flight Track Log - Related Links

Times and Time Zones

All times are in EST time to prevent confusion due to time zone crossing. See the EGF3240 flight status page for this flight to view local times or setup timezone preferences in your user account.

Time Position Orientation Groundspeed Altitude Reporting Facility
EST Latitude Longitude Course Direction KTS MPH feet Rate Location/Type
Wed 06:49:55 PM 41.2550 -95.8575 146° Southeast 185 213 3,500  Level Minneapolis Center
Wed 06:50:14 PM 41.2467 -95.8475 138° Southeast 172 198 4,000 1,574 Climbing Minneapolis Center
Wed 06:50:56 PM 41.2361 -95.7933 105° East 242 278 5,100 1,548 Climbing Minneapolis Center
Wed 06:51:00 PM 41.5078 -95.6215 41° Northeast  Level FlightAware Approximate
Wed 06:51:16 PM 41.2428 -95.7775 61° Northeast 219 252 5,600  Level Minneapolis Center
Wed 06:52:00 PM 41.5807 -95.5364 41° Northeast  Level FlightAware Approximate
Wed 06:52:19 PM 41.2978 -95.7286 34° Northeast 233 268 7,800  Level Minneapolis Center
Wed 06:53:00 PM 41.6581 -95.4586 37° Northeast  Level FlightAware Approximate
Wed 06:53:21 PM 41.3644 -95.6572 39° Northeast 247 284 10,600  Level Minneapolis Center
Wed 06:54:00 PM 41.7275 -95.3690 45° Northeast  Level FlightAware Approximate
Wed 06:54:23 PM 41.4236 -95.5922 39° Northeast 262 302 11,900  Level Minneapolis Center
Wed 06:55:25 PM 41.4903 -95.5206 39° Northeast 286 329 13,400 1,500 Climbing Minneapolis Center
Wed 06:56:27 PM 41.5603 -95.4472 38° Northeast 303 349 15,000 1,548 Climbing Minneapolis Center
Wed 06:57:29 PM 41.6314 -95.3694 39° Northeast 324 373 16,600 1,500 Climbing Minneapolis Center
Wed 06:58:31 PM 41.7183 -95.2761 39° Northeast 333 383 18,100 1,548 Climbing Minneapolis Center
Wed 06:59:33 PM 41.7919 -95.1958 39° Northeast 337 388 19,800 1,645 Climbing Minneapolis Center
Wed 07:00:35 PM 41.8675 -95.1169 38° Northeast 339 390 21,500 1,597 Climbing Minneapolis Center
Wed 07:01:37 PM 41.9406 -95.0369 39° Northeast 340 391 23,100 1,306 Climbing Minneapolis Center
Wed 07:02:39 PM 42.0169 -94.9522 39° Northeast 350 403 24,200 968 Climbing Minneapolis Center
Wed 07:03:41 PM 42.0892 -94.8536 45° Northeast 370 426 25,100 912 Climbing Minneapolis Center
Wed 07:04:44 PM 42.1114 -94.6756 80° East 396 456 26,100 864 Climbing Minneapolis Center
Wed 07:05:46 PM 42.1364 -94.5222 78° East 412 474 26,900 774 Climbing Minneapolis Center
Wed 07:06:48 PM 42.1642 -94.3650 77° East 425 489 27,700 774 Climbing Minneapolis Center
Wed 07:07:50 PM 42.1908 -94.2061 77° East 430 495 28,500 823 Climbing Minneapolis Center
Wed 07:08:52 PM 42.2181 -94.0414 77° East 436 502 29,400 823 Climbing Minneapolis Center
Wed 07:09:54 PM 42.2444 -93.8747 78° East 440 506 30,200 774 Climbing Minneapolis Center
Wed 07:10:56 PM 42.2692 -93.7175 78° East 442 509 31,000 871 Climbing Minneapolis Center
Wed 07:11:58 PM 42.3019 -93.5211 77° East 447 514 32,000 823 Climbing Minneapolis Center
Wed 07:13:00 PM 42.3272 -93.3558 78° East 448 516 32,700 484 Climbing Minneapolis Center
Wed 07:14:02 PM 42.3531 -93.1883 78° East 453 521 33,000 176 Climbing Minneapolis Center
Wed 07:14:42 PM 42.3689 -93.0850 78° East 463 533 33,000  Level Chicago Center
Wed 07:15:44 PM 42.4014 -92.8736 78° East 476 548 33,000  Level Chicago Center
Wed 07:16:46 PM 42.4275 -92.7006 78° East 475 547 33,000 -194 Level Chicago Center
Wed 07:17:48 PM 42.4542 -92.5267 78° East 477 549 32,600 -677 Descending Chicago Center
Wed 07:18:50 PM 42.4806 -92.3525 78° East 476 548 31,600 -768 Descending Chicago Center
Wed 07:19:53 PM 42.5061 -92.1756 79° East 482 555 31,000 -288 Descending Chicago Center
Wed 07:20:55 PM 42.5256 -91.9583 83° East 495 570 31,000  Level Chicago Center
Wed 07:21:57 PM 42.5261 -91.7775 90° East 491 565 31,000  Level Chicago Center
Wed 07:22:59 PM 42.5264 -91.5956 90° East 494 568 31,000  Level Chicago Center
Wed 07:24:01 PM 42.5278 -91.4136 89° East 495 570 31,000  Level Chicago Center
Wed 07:25:03 PM 42.5272 -91.1933 90° East 495 570 31,000 -339 Level Chicago Center
Wed 07:26:05 PM 42.5264 -91.0050 90° East 504 580 30,300 -823 Descending Chicago Center
Wed 07:27:07 PM 42.5250 -90.8181 91° East 501 577 29,300 -968 Descending Chicago Center
Wed 07:28:09 PM 42.5256 -90.6319 90° East 501 577 28,300 -1,008 Descending Chicago Center
Wed 07:29:12 PM 42.5244 -90.4097 90° East 497 572 27,200 -1,008 Descending Chicago Center
Wed 07:30:14 PM 42.5231 -90.2242 91° East 498 573 26,200 -968 Descending Chicago Center
Wed 07:31:16 PM 42.5219 -90.0389 90° East 496 571 25,200 -968 Descending Chicago Center
Wed 07:32:18 PM 42.5178 -89.8572 92° East 487 560 24,200 -1,161 Descending Chicago Center
Wed 07:33:20 PM 42.5161 -89.6969 91° East 443 510 22,800 -1,839 Descending Chicago Center
Wed 07:34:22 PM 42.5142 -89.5094 91° East 421 484 20,400 -2,081 Descending Chicago Center
Wed 07:35:24 PM 42.5114 -89.3614 91° East 406 467 18,500 -1,645 Descending Chicago Center
Wed 07:36:26 PM 42.5083 -89.2189 92° East 389 448 17,000 -1,548 Descending Chicago Center
Wed 07:37:28 PM 42.4881 -89.0886 102° East 361 415 15,300 -1,597 Descending Chicago Center
Wed 07:38:30 PM 42.4681 -88.9603 102° East 352 405 13,700 -1,536 Descending Chicago Center
Wed 07:39:33 PM 42.4458 -88.8142 102° East 339 390 12,100 -1,248 Descending Chicago Center
Wed 07:40:35 PM 42.4281 -88.7000 102° East 323 372 11,100 -581 Descending Chicago Center
Wed 07:41:37 PM 42.4019 -88.6036 110° East 291 335 10,900 -871 Descending Chicago Center
Wed 07:42:39 PM 42.3208 -88.5744 165° South 280 322 9,300 -919 Descending Chicago Center
Wed 07:43:41 PM 42.2481 -88.5594 171° South 268 308 9,000 -290 Descending Chicago Center
Wed 07:44:43 PM 42.1764 -88.5547 177° South 260 299 8,700 -823 Descending Chicago Center
Wed 07:45:45 PM 42.1119 -88.5597 183° South 238 274 7,300 -774 Descending Chicago Center
Wed 07:46:47 PM 42.0442 -88.5892 198° South 229 264 7,100 -145 Descending Chicago Center
Wed 07:47:49 PM 41.9908 -88.5542 154° Southeast 228 262 7,000  Descending Chicago Center
Wed 07:48:51 PM 41.9817 -88.4903 101° East 178 205 7,100 48 Climbing Chicago Center
Wed 07:49:54 PM 41.9822 -88.4206 89° East 175 201 7,100  Level Chicago Center
Wed 07:50:56 PM 41.9822 -88.3569 90° East 172 198 7,100 -145 Level Chicago Center
Wed 07:51:58 PM 41.9825 -88.2922 90° East 171 197 6,800 -677 Descending Chicago Center
Wed 07:53:00 PM 41.9833 -88.2231 89° East 172 198 5,700 -1,016 Descending Chicago Center
Wed 07:54:02 PM 41.9825 -88.1622 91° East 165 190 4,700 -968 Descending Chicago Center
Wed 07:55:04 PM 41.9833 -88.1000 89° East 155 178 3,700 -919 Descending Chicago Center
Wed 07:56:06 PM 41.9828 -88.0453 91° East 148 170 2,800 -774 Descending Chicago Center
Wed 07:57:08 PM 41.9833 -87.9997 89° East 117 135 2,100 -677 Descending Chicago Center
Wed 07:58:10 PM 41.9828 -87.9575 91° East 113 130 1,400 -576 Descending Chicago Center
Wed 07:59:13 PM 41.9825 -87.9117 90° East 122 140 900 -476 Descending Chicago Center

Login

Don't have an account? Register now (free) for customized features, flight alerts, and more!